Time;durP1;ratioP1;P1;durP2;ratioP2;P2;SDS_P1;SDS_P2;PMS_P1;PMS_P2;Temp;Humidity;BMP_temperature;BMP_pressure;BME280_temperature;BME280_humidity;BME280_pressure;Samples;Min_cycle;Max_cycle;Signal;HPM_P1;HPM_P2
2021/12/10 00:00:17;;;;;;;18.80;11.80;;;;;;;;;;5095721;28;20043;-72
2021/12/10 00:02:46;;;;;;;23.20;14.88;;;;;;;;;;5095687;28;20480;-72
2021/12/10 00:05:14;;;;;;;27.60;15.50;;;;;;;;;;5094947;28;20062;-72
2021/12/10 00:07:41;;;;;;;21.90;13.40;;;;;;;;;;5095571;28;20054;-72
2021/12/10 00:10:10;;;;;;;27.40;14.23;;;;;;;;;;5095150;28;20161;-72
2021/12/10 00:12:40;;;;;;;27.33;15.48;;;;;;;;;;5095457;28;20016;-72
2021/12/10 00:15:08;;;;;;;23.73;12.85;;;;;;;;;;5095433;28;20034;-72
2021/12/10 00:17:35;;;;;;;22.00;12.75;;;;;;;;;;5094990;28;20024;-72
2021/12/10 00:20:03;;;;;;;20.98;12.13;;;;;;;;;;5095865;28;20449;-72
2021/12/10 00:22:39;;;;;;;18.02;11.10;;;;;;;;;;5095375;28;20012;-72
2021/12/10 00:25:13;;;;;;;21.60;12.48;;;;;;;;;;5094750;28;20085;-72
2021/12/10 00:27:40;;;;;;;15.25;9.80;;;;;;;;;;5095149;28;20502;-72
2021/12/10 00:30:11;;;;;;;18.83;11.95;;;;;;;;;;5095212;28;20020;-72
2021/12/10 00:32:41;;;;;;;25.23;13.40;;;;;;;;;;5094836;28;20024;-72
2021/12/10 00:35:10;;;;;;;25.52;14.60;;;;;;;;;;5095020;28;20024;-72
2021/12/10 00:37:36;;;;;;;27.65;15.30;;;;;;;;;;5095233;28;20020;-72
2021/12/10 00:40:04;;;;;;;31.85;18.58;;;;;;;;;;5094518;28;20107;-72
2021/12/10 00:42:32;;;;;;;30.85;17.00;;;;;;;;;;5094852;28;20024;-72
2021/12/10 00:44:59;;;;;;;27.33;16.88;;;;;;;;;;5094968;28;20064;-72
2021/12/10 00:47:29;;;;;;;28.25;16.48;;;;;;;;;;5094408;28;20487;-72
2021/12/10 00:49:55;;;;;;;29.65;18.25;;;;;;;;;;5094198;28;20028;-72
2021/12/10 00:52:22;;;;;;;23.80;16.25;;;;;;;;;;5094361;28;20031;-72
2021/12/10 00:54:49;;;;;;;27.40;17.80;;;;;;;;;;5094700;28;20149;-72
2021/12/10 00:57:15;;;;;;;29.23;18.40;;;;;;;;;;5094623;28;20027;-72
2021/12/10 00:59:45;;;;;;;30.35;18.98;;;;;;;;;;5094371;28;20023;-72
2021/12/10 01:02:12;;;;;;;29.85;16.73;;;;;;;;;;5094455;28;20031;-72
2021/12/10 01:04:41;;;;;;;27.00;16.52;;;;;;;;;;5094278;28;20047;-72
2021/12/10 01:07:08;;;;;;;23.05;14.63;;;;;;;;;;5094298;28;20032;-72
2021/12/10 01:09:37;;;;;;;22.75;14.07;;;;;;;;;;5094502;28;20023;-72
2021/12/10 01:12:06;;;;;;;23.02;14.05;;;;;;;;;;5094510;28;20028;-72
2021/12/10 01:15:38;;;;;;;21.73;14.55;;;;;;;;;;5093938;28;20093;-72
2021/12/10 01:25:52;;;;;;;39.22;23.10;;;;;;;;;;5094157;28;20510;-72
2021/12/10 01:28:18;;;;;;;33.22;19.30;;;;;;;;;;5093734;28;20024;-72
2021/12/10 01:30:44;;;;;;;29.10;18.13;;;;;;;;;;5094098;28;20058;-72
2021/12/10 01:33:13;;;;;;;27.67;17.20;;;;;;;;;;5094536;28;20020;-72
2021/12/10 01:35:41;;;;;;;24.65;16.55;;;;;;;;;;5093586;28;20448;-72
2021/12/10 01:38:08;;;;;;;29.98;19.10;;;;;;;;;;5093856;28;20021;-72
2021/12/10 01:40:36;;;;;;;23.73;16.23;;;;;;;;;;5094343;28;20030;-72
2021/12/10 01:43:06;;;;;;;23.70;16.08;;;;;;;;;;5093482;28;20028;-72
2021/12/10 01:45:35;;;;;;;28.02;16.35;;;;;;;;;;5094124;28;20070;-72
2021/12/10 01:48:11;;;;;;;22.35;13.40;;;;;;;;;;5093695;28;20051;-72
2021/12/10 01:50:37;;;;;;;25.45;14.90;;;;;;;;;;5093336;28;20023;-72
2021/12/10 01:53:06;;;;;;;23.63;14.13;;;;;;;;;;5093617;28;20028;-72
2021/12/10 01:55:33;;;;;;;29.05;16.00;;;;;;;;;;5093501;28;20080;-72
2021/12/10 01:57:59;;;;;;;34.88;23.05;;;;;;;;;;5093687;28;20469;-72
2021/12/10 02:00:28;;;;;;;37.00;24.60;;;;;;;;;;5093378;28;20024;-72
2021/12/10 02:02:55;;;;;;;42.60;24.45;;;;;;;;;;5093159;28;20020;-72
2021/12/10 02:05:21;;;;;;;46.10;25.90;;;;;;;;;;5093247;28;20074;-72
2021/12/10 02:07:48;;;;;;;32.90;20.85;;;;;;;;;;5094016;28;20020;-72
2021/12/10 02:10:16;;;;;;;34.63;21.25;;;;;;;;;;5093172;28;20024;-72
2021/12/10 02:12:43;;;;;;;33.53;21.50;;;;;;;;;;5093474;28;20024;-72
2021/12/10 02:15:11;;;;;;;28.52;18.75;;;;;;;;;;5093404;28;20085;-72
2021/12/10 02:17:40;;;;;;;35.28;21.30;;;;;;;;;;5093019;28;20012;-72
2021/12/10 02:20:09;;;;;;;41.42;25.30;;;;;;;;;;5093689;28;20031;-72
2021/12/10 02:22:35;;;;;;;32.88;19.30;;;;;;;;;;5093714;28;20526;-72
2021/12/10 02:25:02;;;;;;;26.20;17.50;;;;;;;;;;5092938;28;20039;-72
2021/12/10 02:27:28;;;;;;;33.13;19.67;;;;;;;;;;5093350;28;20016;-72
2021/12/10 02:29:54;;;;;;;30.17;18.65;;;;;;;;;;5093350;28;20028;-72
2021/12/10 02:32:22;;;;;;;27.52;18.10;;;;;;;;;;5093042;28;20016;-72
2021/12/10 02:34:49;;;;;;;31.00;18.33;;;;;;;;;;5093366;28;20031;-72
2021/12/10 02:37:16;;;;;;;28.65;18.58;;;;;;;;;;5093297;28;20021;-72
2021/12/10 02:39:42;;;;;;;29.13;19.50;;;;;;;;;;5092841;28;20043;-72
2021/12/10 02:42:09;;;;;;;22.38;15.43;;;;;;;;;;5093194;28;20020;-72
2021/12/10 02:44:35;;;;;;;22.67;15.30;;;;;;;;;;5093092;28;20024;-72
2021/12/10 02:47:01;;;;;;;22.65;15.07;;;;;;;;;;5092864;28;20035;-73
2021/12/10 02:49:28;;;;;;;23.45;15.43;;;;;;;;;;5093230;28;20026;-72
2021/12/10 02:51:55;;;;;;;28.42;19.10;;;;;;;;;;5092760;28;20034;-72
2021/12/10 02:54:32;;;;;;;24.67;16.05;;;;;;;;;;5093099;28;20024;-72
2021/12/10 02:56:58;;;;;;;24.73;15.82;;;;;;;;;;5093462;28;20020;-72
2021/12/10 02:59:24;;;;;;;27.58;17.25;;;;;;;;;;5092677;28;20028;-72
2021/12/10 03:01:51;;;;;;;25.67;15.82;;;;;;;;;;5093126;28;20044;-72
2021/12/10 03:04:18;;;;;;;22.42;14.82;;;;;;;;;;5092800;28;20052;-72
2021/12/10 03:06:49;;;;;;;26.60;16.27;;;;;;;;;;5092734;28;20498;-72
2021/12/10 03:09:15;;;;;;;25.02;13.35;;;;;;;;;;5093118;28;20024;-72
2021/12/10 03:11:48;;;;;;;26.30;16.55;;;;;;;;;;5094085;28;20025;-72
2021/12/10 03:14:17;;;;;;;28.23;18.40;;;;;;;;;;5096189;28;20031;-72
2021/12/10 03:16:43;;;;;;;30.00;20.58;;;;;;;;;;5096871;28;20043;-72
2021/12/10 03:19:10;;;;;;;38.13;20.63;;;;;;;;;;5095511;28;20384;-72
2021/12/10 03:21:42;;;;;;;31.95;19.33;;;;;;;;;;5096120;28;20383;-72
2021/12/10 03:24:08;;;;;;;30.30;17.55;;;;;;;;;;5096507;28;20026;-72
2021/12/10 03:26:34;;;;;;;28.00;16.95;;;;;;;;;;5096426;28;20436;-72
2021/12/10 03:29:00;;;;;;;32.42;18.00;;;;;;;;;;5096021;28;20087;-72
2021/12/10 03:31:27;;;;;;;28.10;16.73;;;;;;;;;;5096302;28;20024;-72
2021/12/10 03:33:54;;;;;;;26.85;14.77;;;;;;;;;;5096268;28;20020;-72
2021/12/10 03:36:21;;;;;;;22.27;14.20;;;;;;;;;;5095801;28;20021;-72
2021/12/10 03:38:47;;;;;;;19.33;13.05;;;;;;;;;;5096088;28;20028;-72
2021/12/10 03:41:14;;;;;;;19.48;12.45;;;;;;;;;;5095854;28;20024;-72
2021/12/10 03:43:41;;;;;;;18.75;12.25;;;;;;;;;;5096250;28;20082;-72
2021/12/10 03:46:08;;;;;;;19.90;11.40;;;;;;;;;;5096032;28;20085;-72
2021/12/10 03:48:36;;;;;;;16.23;11.45;;;;;;;;;;5095951;28;20027;-72
2021/12/10 03:51:05;;;;;;;17.63;10.52;;;;;;;;;;5095930;28;20028;-72
2021/12/10 03:53:31;;;;;;;16.60;10.55;;;;;;;;;;5095892;28;20016;-72
2021/12/10 03:56:03;;;;;;;15.25;10.15;;;;;;;;;;5095648;28;20027;-72
2021/12/10 03:58:29;;;;;;;18.55;11.07;;;;;;;;;;5095893;28;20494;-72
2021/12/10 04:00:58;;;;;;;16.77;9.85;;;;;;;;;;5095893;28;20020;-72
2021/12/10 04:03:25;;;;;;;18.95;12.98;;;;;;;;;;5093816;28;20361;-72
2021/12/10 04:05:52;;;;;;;21.67;13.00;;;;;;;;;;5096149;28;20036;-72
2021/12/10 04:08:18;;;;;;;21.30;14.88;;;;;;;;;;5095585;28;20529;-73
2021/12/10 04:10:45;;;;;;;23.75;15.77;;;;;;;;;;5095318;28;20066;-72
2021/12/10 04:13:12;;;;;;;28.48;18.35;;;;;;;;;;5095570;28;20515;-72
2021/12/10 04:15:39;;;;;;;23.30;14.60;;;;;;;;;;5095454;28;20095;-72
2021/12/10 04:18:07;;;;;;;21.10;13.30;;;;;;;;;;5095018;28;20384;-72
2021/12/10 04:20:33;;;;;;;27.92;16.42;;;;;;;;;;5095317;28;20020;-72
2021/12/10 04:23:04;;;;;;;28.88;18.27;;;;;;;;;;5095888;28;20020;-72
2021/12/10 04:25:30;;;;;;;26.27;18.10;;;;;;;;;;5094815;28;20032;-73
2021/12/10 04:27:59;;;;;;;25.00;15.70;;;;;;;;;;5095227;28;20496;-72
2021/12/10 04:30:25;;;;;;;24.02;15.43;;;;;;;;;;5094813;28;20384;-72
2021/12/10 04:32:52;;;;;;;26.95;15.38;;;;;;;;;;5095570;28;20099;-72
2021/12/10 04:35:18;;;;;;;22.40;15.00;;;;;;;;;;5095147;28;20020;-72
2021/12/10 04:37:45;;;;;;;23.52;14.50;;;;;;;;;;5094638;28;20024;-72
2021/12/10 04:40:12;;;;;;;20.85;14.13;;;;;;;;;;5095036;28;20024;-72
2021/12/10 04:42:39;;;;;;;21.70;13.80;;;;;;;;;;5095140;28;20467;-73
2021/12/10 04:45:06;;;;;;;24.95;17.38;;;;;;;;;;5094536;28;20032;-72
2021/12/10 04:47:33;;;;;;;32.08;20.70;;;;;;;;;;5094810;28;20028;-72
2021/12/10 04:50:00;;;;;;;39.63;25.00;;;;;;;;;;5094819;28;20028;-72
2021/12/10 04:52:26;;;;;;;39.95;26.02;;;;;;;;;;5094425;28;20026;-72
2021/12/10 04:54:53;;;;;;;31.65;20.63;;;;;;;;;;5094695;28;20479;-72
2021/12/10 04:57:19;;;;;;;29.08;19.50;;;;;;;;;;5094626;28;20430;-72
2021/12/10 04:59:46;;;;;;;31.15;18.95;;;;;;;;;;5094220;28;20081;-72
2021/12/10 05:02:13;;;;;;;27.33;16.75;;;;;;;;;;5094832;28;20400;-72
2021/12/10 05:04:42;;;;;;;25.98;16.42;;;;;;;;;;5094247;28;20086;-72
2021/12/10 05:07:10;;;;;;;24.30;15.88;;;;;;;;;;5094104;28;20124;-72
2021/12/10 05:09:36;;;;;;;22.83;13.95;;;;;;;;;;5094405;28;20086;-72
2021/12/10 05:12:03;;;;;;;25.48;16.08;;;;;;;;;;5094390;28;20471;-72
2021/12/10 05:14:30;;;;;;;27.38;17.45;;;;;;;;;;5093987;28;20024;-72
2021/12/10 05:17:00;;;;;;;91.63;48.08;;;;;;;;;;5094372;28;20471;-74
2021/12/10 05:19:28;;;;;;;56.17;32.47;;;;;;;;;;5094286;28;20407;-72
2021/12/10 05:21:55;;;;;;;84.30;49.90;;;;;;;;;;5094185;28;20024;-74
2021/12/10 05:24:22;;;;;;;67.35;40.47;;;;;;;;;;5094274;28;20028;-73
2021/12/10 05:26:48;;;;;;;52.63;33.45;;;;;;;;;;5093963;28;20028;-72
2021/12/10 05:29:15;;;;;;;55.33;32.65;;;;;;;;;;5094331;28;20039;-74
2021/12/10 05:31:43;;;;;;;43.85;27.95;;;;;;;;;;5094078;28;20031;-73
2021/12/10 05:34:10;;;;;;;53.10;31.25;;;;;;;;;;5093520;28;20024;-73
2021/12/10 05:36:36;;;;;;;50.42;31.60;;;;;;;;;;5094196;28;20419;-71
2021/12/10 05:39:04;;;;;;;62.42;39.00;;;;;;;;;;5093878;28;20028;-71
2021/12/10 05:41:30;;;;;;;51.60;32.55;;;;;;;;;;5093449;28;20059;-71
2021/12/10 05:43:57;;;;;;;59.50;25.85;;;;;;;;;;5093993;28;20032;-71
2021/12/10 05:46:23;;;;;;;38.25;21.90;;;;;;;;;;5093860;28;20035;-71
2021/12/10 05:48:49;;;;;;;41.13;18.05;;;;;;;;;;5093378;28;20024;-71
2021/12/10 05:51:15;;;;;;;36.13;15.48;;;;;;;;;;5093943;28;20028;-71
2021/12/10 05:53:42;;;;;;;20.25;11.95;;;;;;;;;;5093722;28;20095;-72
2021/12/10 05:56:08;;;;;;;16.27;10.77;;;;;;;;;;5093311;28;20106;-72
2021/12/10 05:58:35;;;;;;;29.90;13.38;;;;;;;;;;5093714;28;20070;-72
2021/12/10 06:01:03;;;;;;;60.72;33.40;;;;;;;;;;5093713;28;20365;-73
2021/12/10 06:03:32;;;;;;;37.95;17.55;;;;;;;;;;5092951;28;20048;-72
2021/12/10 06:05:59;;;;;;;33.33;20.42;;;;;;;;;;5093656;28;20114;-72
2021/12/10 06:08:25;;;;;;;37.97;18.20;;;;;;;;;;5093797;28;20069;-72
2021/12/10 06:10:52;;;;;;;54.83;26.42;;;;;;;;;;5092923;28;20035;-72
2021/12/10 06:13:19;;;;;;;57.03;32.03;;;;;;;;;;5093344;28;20105;-72
2021/12/10 06:15:45;;;;;;;47.30;28.02;;;;;;;;;;5092907;28;20024;-72
2021/12/10 06:18:11;;;;;;;42.55;23.73;;;;;;;;;;5093532;28;20016;-72
2021/12/10 06:20:39;;;;;;;55.30;23.48;;;;;;;;;;5093140;28;20024;-68
2021/12/10 06:23:05;;;;;;;37.03;18.63;;;;;;;;;;5093032;28;20016;-67
2021/12/10 06:25:33;;;;;;;46.65;16.00;;;;;;;;;;5083996;28;20032;-66
2021/12/10 06:27:59;;;;;;;30.33;13.07;;;;;;;;;;5070556;28;20465;-66
2021/12/10 06:30:31;;;;;;;30.65;10.30;;;;;;;;;;5065344;28;20024;-66
2021/12/10 06:32:59;;;;;;;47.65;11.80;;;;;;;;;;5064294;28;20016;-66
2021/12/10 06:35:26;;;;;;;22.10;12.52;;;;;;;;;;5072261;28;20095;-65
2021/12/10 06:37:53;;;;;;;40.92;15.98;;;;;;;;;;5070161;28;20024;-66
2021/12/10 06:40:21;;;;;;;36.08;17.00;;;;;;;;;;5070346;28;20069;-66
2021/12/10 06:42:48;;;;;;;31.20;16.98;;;;;;;;;;5083403;28;20481;-66
2021/12/10 06:45:16;;;;;;;46.40;23.48;;;;;;;;;;5090562;28;20035;-64
2021/12/10 06:47:47;;;;;;;34.05;21.33;;;;;;;;;;5094629;28;20073;-66
2021/12/10 06:50:14;;;;;;;30.88;19.20;;;;;;;;;;5096387;28;20543;-67
2021/12/10 06:52:40;;;;;;;33.28;21.30;;;;;;;;;;5094199;28;20032;-66
2021/12/10 06:55:07;;;;;;;64.28;40.80;;;;;;;;;;5094538;28;20036;-65
2021/12/10 06:57:34;;;;;;;52.53;29.85;;;;;;;;;;5095982;28;20028;-66
2021/12/10 07:00:22;;;;;;;83.63;41.97;;;;;;;;;;5095809;28;20024;-66
2021/12/10 07:02:48;;;;;;;107.00;53.88;;;;;;;;;;5096003;28;20479;-66
2021/12/10 07:05:15;;;;;;;120.13;61.67;;;;;;;;;;5095636;28;20048;-67
2021/12/10 07:07:41;;;;;;;109.88;52.15;;;;;;;;;;5091133;28;20494;-67
2021/12/10 07:10:09;;;;;;;77.03;45.03;;;;;;;;;;5095774;28;20043;-67
2021/12/10 07:12:36;;;;;;;105.30;56.50;;;;;;;;;;5095423;28;20072;-66
2021/12/10 07:15:03;;;;;;;92.50;55.20;;;;;;;;;;5094465;28;20079;-71
2021/12/10 07:17:30;;;;;;;88.55;53.28;;;;;;;;;;5089571;28;20023;-69
2021/12/10 07:19:56;;;;;;;79.05;51.33;;;;;;;;;;5073979;28;20074;-69
2021/12/10 07:22:22;;;;;;;71.30;49.15;;;;;;;;;;5084171;28;20031;-68
2021/12/10 07:24:48;;;;;;;127.43;76.78;;;;;;;;;;5095226;28;20098;-69
2021/12/10 07:27:15;;;;;;;113.55;70.05;;;;;;;;;;5095629;28;20022;-68
2021/12/10 07:29:41;;;;;;;118.50;66.88;;;;;;;;;;5095602;28;20032;-67
2021/12/10 07:32:08;;;;;;;115.78;64.70;;;;;;;;;;5095419;28;20503;-67
2021/12/10 07:34:34;;;;;;;88.47;47.17;;;;;;;;;;5095502;28;20442;-68
2021/12/10 07:37:01;;;;;;;54.90;33.78;;;;;;;;;;5084965;28;20024;-67
2021/12/10 07:39:28;;;;;;;41.53;26.92;;;;;;;;;;5090721;28;20024;-67
2021/12/10 07:41:54;;;;;;;34.45;22.13;;;;;;;;;;5094742;28;20029;-66
2021/12/10 07:44:21;;;;;;;33.33;19.63;;;;;;;;;;5093940;28;20024;-68
2021/12/10 07:46:50;;;;;;;49.65;33.70;;;;;;;;;;5094534;28;20059;-65
2021/12/10 07:49:17;;;;;;;44.42;28.77;;;;;;;;;;5094532;28;20013;-66
2021/12/10 07:51:49;;;;;;;47.20;34.22;;;;;;;;;;5093656;28;20027;-69
2021/12/10 07:54:15;;;;;;;34.53;22.83;;;;;;;;;;5094230;28;20099;-71
2021/12/10 07:56:42;;;;;;;35.25;25.13;;;;;;;;;;5092694;28;20376;-69
2021/12/10 07:59:08;;;;;;;37.88;26.25;;;;;;;;;;5094275;28;20028;-69
2021/12/10 08:01:34;;;;;;;32.63;24.58;;;;;;;;;;5092527;28;20348;-67
2021/12/10 08:04:01;;;;;;;47.47;31.50;;;;;;;;;;5094456;28;20097;-68
2021/12/10 08:06:30;;;;;;;50.30;36.88;;;;;;;;;;5094502;28;20065;-70
2021/12/10 08:08:57;;;;;;;45.65;28.48;;;;;;;;;;5093699;28;20048;-70
2021/12/10 08:11:23;;;;;;;34.58;24.75;;;;;;;;;;5094157;28;20579;-68
2021/12/10 08:13:50;;;;;;;59.92;34.90;;;;;;;;;;5094508;28;20024;-69
2021/12/10 08:16:17;;;;;;;57.13;38.28;;;;;;;;;;5093724;28;20032;-69
2021/12/10 08:18:45;;;;;;;72.45;50.97;;;;;;;;;;5091588;28;20361;-69
2021/12/10 08:21:13;;;;;;;51.15;31.58;;;;;;;;;;5092927;28;20016;-70
2021/12/10 08:23:39;;;;;;;48.30;27.35;;;;;;;;;;5090546;28;20058;-69
2021/12/10 08:26:06;;;;;;;36.72;25.33;;;;;;;;;;5088723;28;20028;-69
2021/12/10 08:28:34;;;;;;;31.10;20.73;;;;;;;;;;5094005;28;20028;-69
2021/12/10 08:31:01;;;;;;;34.00;19.98;;;;;;;;;;5086072;28;20934;-69
2021/12/10 08:33:28;;;;;;;55.25;34.03;;;;;;;;;;5073059;28;20029;-70
2021/12/10 08:35:56;;;;;;;26.65;16.90;;;;;;;;;;5073993;28;20040;-71
2021/12/10 08:38:22;;;;;;;23.15;14.93;;;;;;;;;;5072787;28;20024;-69
2021/12/10 08:40:54;;;;;;;16.75;10.10;;;;;;;;;;5089511;28;20028;-68
2021/12/10 08:43:21;;;;;;;11.90;7.00;;;;;;;;;;5086242;28;20333;-69
2021/12/10 08:45:47;;;;;;;16.58;8.95;;;;;;;;;;5090602;28;20038;-68
2021/12/10 08:48:13;;;;;;;18.80;12.30;;;;;;;;;;5093590;28;20024;-69
2021/12/10 08:50:40;;;;;;;16.15;10.05;;;;;;;;;;5093704;28;20024;-69
2021/12/10 08:53:12;;;;;;;33.33;20.67;;;;;;;;;;5093195;28;20024;-69
2021/12/10 08:55:40;;;;;;;39.00;22.92;;;;;;;;;;5093490;28;20038;-70
2021/12/10 08:58:07;;;;;;;28.58;17.45;;;;;;;;;;5090458;28;20020;-67
2021/12/10 09:00:34;;;;;;;27.63;18.40;;;;;;;;;;5090761;28;20057;-70
2021/12/10 09:03:01;;;;;;;51.22;29.77;;;;;;;;;;5085189;28;20020;-70
2021/12/10 09:05:28;;;;;;;36.05;21.67;;;;;;;;;;5090060;28;20048;-70
2021/12/10 09:07:55;;;;;;;33.58;21.00;;;;;;;;;;5092019;28;20027;-69
2021/12/10 09:10:23;;;;;;;11.63;6.63;;;;;;;;;;5079754;28;20036;-70
2021/12/10 09:12:50;;;;;;;35.60;20.05;;;;;;;;;;5071811;28;20480;-70
2021/12/10 09:15:19;;;;;;;19.13;12.43;;;;;;;;;;5070846;28;20029;-73
2021/12/10 09:17:47;;;;;;;18.88;10.93;;;;;;;;;;5069858;28;20043;-72
2021/12/10 09:20:17;;;;;;;12.00;7.18;;;;;;;;;;5069529;28;20040;-68
2021/12/10 09:22:44;;;;;;;16.13;9.35;;;;;;;;;;5067838;28;20365;-69
2021/12/10 09:25:11;;;;;;;23.58;14.63;;;;;;;;;;5089351;28;20120;-70
2021/12/10 09:27:38;;;;;;;12.23;7.13;;;;;;;;;;5090962;28;20108;-70
2021/12/10 09:30:07;;;;;;;9.70;5.20;;;;;;;;;;5090436;28;20032;-70
2021/12/10 09:32:33;;;;;;;10.82;6.20;;;;;;;;;;5093032;28;20035;-68
2021/12/10 09:35:05;;;;;;;13.75;7.40;;;;;;;;;;5092773;28;20024;-70
2021/12/10 09:37:32;;;;;;;32.97;20.88;;;;;;;;;;5092597;28;20035;-69
2021/12/10 09:39:58;;;;;;;16.67;9.15;;;;;;;;;;5092805;28;20099;-72
2021/12/10 09:42:25;;;;;;;12.70;7.53;;;;;;;;;;5093244;28;20020;-71
2021/12/10 09:44:53;;;;;;;12.02;7.47;;;;;;;;;;5092110;28;20050;-71
2021/12/10 09:47:19;;;;;;;10.85;6.07;;;;;;;;;;5090629;28;20020;-69
2021/12/10 09:49:46;;;;;;;12.93;7.03;;;;;;;;;;5090371;28;20039;-69
2021/12/10 09:53:00;;;;;;;11.50;7.05;;;;;;;;;;5107923;27;20393;-70
2021/12/10 09:55:27;;;;;;;10.68;6.18;;;;;;;;;;5086598;28;20024;-68
2021/12/10 09:57:55;;;;;;;14.15;6.85;;;;;;;;;;5104835;28;20106;-69
2021/12/10 10:00:28;;;;;;;17.92;11.55;;;;;;;;;;5108184;28;20659;-69
2021/12/10 10:02:55;;;;;;;20.58;11.43;;;;;;;;;;5107831;28;20024;-68
2021/12/10 10:08:10;;;;;;;16.92;9.95;;;;;;;;;;5090629;27;20742;-67
2021/12/10 10:10:37;;;;;;;24.27;11.93;;;;;;;;;;5086761;28;20035;-68
2021/12/10 10:13:05;;;;;;;19.42;11.15;;;;;;;;;;5088213;28;20533;-67
2021/12/10 10:15:32;;;;;;;13.82;8.18;;;;;;;;;;5087030;28;20059;-68
2021/12/10 10:18:00;;;;;;;27.02;13.93;;;;;;;;;;5093391;28;20052;-67
2021/12/10 10:20:28;;;;;;;20.25;11.57;;;;;;;;;;5110419;28;20035;-68
2021/12/10 10:22:54;;;;;;;15.57;7.75;;;;;;;;;;5109537;28;20027;-67
2021/12/10 10:31:11;;;;;;;39.47;23.90;;;;;;;;;;5110459;27;20404;-68
2021/12/10 10:33:38;;;;;;;22.52;12.82;;;;;;;;;;5110049;28;20081;-68
2021/12/10 10:36:08;;;;;;;18.30;9.90;;;;;;;;;;5109605;28;20026;-69
2021/12/10 10:38:34;;;;;;;12.15;6.82;;;;;;;;;;5097775;28;20036;-68
2021/12/10 10:41:04;;;;;;;11.43;7.97;;;;;;;;;;5108571;28;20024;-68
2021/12/10 10:44:34;;;;;;;9.60;5.32;;;;;;;;;;5109640;27;20454;-69
2021/12/10 10:47:01;;;;;;;10.90;5.65;;;;;;;;;;5106790;28;20476;-69
2021/12/10 10:49:30;;;;;;;10.73;5.35;;;;;;;;;;5110479;28;20020;-69
2021/12/10 10:51:56;;;;;;;13.25;6.47;;;;;;;;;;5087498;28;20032;-68
2021/12/10 10:54:30;;;;;;;9.13;5.32;;;;;;;;;;5087887;28;20024;-68
2021/12/10 10:56:56;;;;;;;13.65;8.82;;;;;;;;;;5087815;28;20031;-68
2021/12/10 11:01:44;;;;;;;10.50;5.00;;;;;;;;;;5108679;27;20796;-69
2021/12/10 11:04:18;;;;;;;12.32;7.40;;;;;;;;;;5108672;28;20148;-70
2021/12/10 11:11:11;;;;;;;12.57;5.68;;;;;;;;;;5129741;27;20138;-70
2021/12/10 11:13:37;;;;;;;7.57;3.90;;;;;;;;;;5089036;28;20058;-70
2021/12/10 11:16:06;;;;;;;9.45;4.70;;;;;;;;;;5089439;28;20100;-70
2021/12/10 11:20:43;;;;;;;12.80;6.38;;;;;;;;;;5110374;27;20392;-70
2021/12/10 11:23:13;;;;;;;8.13;4.40;;;;;;;;;;5111273;28;20073;-71
2021/12/10 11:25:50;;;;;;;12.88;6.80;;;;;;;;;;5110409;28;20074;-69
2021/12/10 11:29:32;;;;;;;10.77;5.95;;;;;;;;;;5110718;27;20915;-72
2021/12/10 11:34:42;;;;;;;10.82;4.85;;;;;;;;;;5130374;27;20311;-70
2021/12/10 11:37:09;;;;;;;20.15;14.13;;;;;;;;;;5108974;28;20035;-69
2021/12/10 11:39:52;;;;;;;26.65;16.02;;;;;;;;;;5105832;28;20023;-68
2021/12/10 11:42:18;;;;;;;;;;;;;;;;;;5086857;28;20021;-68
2021/12/10 11:45:05;;;;;;;11.05;6.35;;;;;;;;;;5095922;28;19939;-68
2021/12/10 11:47:38;;;;;;;11.23;6.15;;;;;;;;;;5106339;27;20757;-70
2021/12/10 11:51:26;;;;;;;9.65;5.57;;;;;;;;;;5098387;27;1527235;-70
2021/12/10 11:53:53;;;;;;;9.55;5.40;;;;;;;;;;5127302;28;20086;-68
2021/12/10 11:56:22;;;;;;;22.85;13.30;;;;;;;;;;5127616;28;20016;-68
2021/12/10 11:59:17;;;;;;;26.13;17.25;;;;;;;;;;5127774;28;20098;-68
2021/12/10 12:01:56;;;;;;;30.20;18.48;;;;;;;;;;5109311;28;20039;-68
2021/12/10 12:04:27;;;;;;;17.17;9.20;;;;;;;;;;5127225;27;20050;-70
2021/12/10 12:07:12;;;;;;;26.05;14.30;;;;;;;;;;5129322;27;20027;-69
2021/12/10 12:10:48;;;;;;;18.67;10.82;;;;;;;;;;5068527;28;20399;-69
2021/12/10 12:15:45;;;;;;;17.23;9.32;;;;;;;;;;5068712;28;20520;-68
2021/12/10 12:18:25;;;;;;;14.32;9.13;;;;;;;;;;5068647;28;20390;-68
2021/12/10 12:26:01;;;;;;;13.73;7.43;;;;;;;;;;5110349;27;20393;-69
2021/12/10 12:29:48;;;;;;;9.60;4.45;;;;;;;;;;5105483;27;20417;-69
2021/12/10 12:32:20;;;;;;;10.85;4.70;;;;;;;;;;5107372;28;20073;-68
2021/12/10 12:34:47;;;;;;;9.35;4.20;;;;;;;;;;5110641;28;20020;-69
2021/12/10 12:37:14;;;;;;;12.35;6.43;;;;;;;;;;5110494;28;20028;-69
2021/12/10 12:39:47;;;;;;;9.10;3.97;;;;;;;;;;5110835;28;20023;-69
2021/12/10 12:42:31;;;;;;;6.35;3.15;;;;;;;;;;5110302;28;20533;-67
2021/12/10 12:45:04;;;;;;;11.73;5.70;;;;;;;;;;5110245;28;20107;-69
2021/12/10 12:47:31;;;;;;;22.92;10.63;;;;;;;;;;5110684;28;20028;-68
2021/12/10 12:50:11;;;;;;;13.68;7.03;;;;;;;;;;5110366;27;21020;-67
2021/12/10 12:55:29;;;;;;;15.45;10.23;;;;;;;;;;5111221;27;20396;-68
2021/12/10 12:57:55;;;;;;;12.18;5.45;;;;;;;;;;5109623;28;20030;-68
2021/12/10 13:00:40;;;;;;;12.18;5.93;;;;;;;;;;5110901;28;20375;-68
2021/12/10 13:04:33;;;;;;;10.70;6.25;;;;;;;;;;5104448;27;20381;-69
2021/12/10 13:07:20;;;;;;;10.25;5.40;;;;;;;;;;5101473;28;20031;-72
2021/12/10 13:09:56;;;;;;;10.18;5.13;;;;;;;;;;5103201;28;20431;-72
2021/12/10 13:12:38;;;;;;;7.70;4.53;;;;;;;;;;5099944;28;20047;-72
2021/12/10 13:15:07;;;;;;;26.30;13.75;;;;;;;;;;5103025;28;20032;-71
2021/12/10 13:19:17;;;;;;;12.80;6.28;;;;;;;;;;5110123;27;20780;-72
2021/12/10 13:21:49;;;;;;;39.03;23.23;;;;;;;;;;5109716;28;20024;-71
2021/12/10 13:24:15;;;;;;;32.20;21.73;;;;;;;;;;5110627;28;20074;-71
2021/12/10 13:26:42;;;;;;;28.83;18.45;;;;;;;;;;5107642;28;20373;-71
2021/12/10 13:29:08;;;;;;;26.75;18.02;;;;;;;;;;5098583;28;20020;-70
2021/12/10 13:31:36;;;;;;;19.25;12.77;;;;;;;;;;5109373;28;20429;-71
2021/12/10 13:34:04;;;;;;;30.55;20.02;;;;;;;;;;5109482;28;20020;-72
2021/12/10 13:36:31;;;;;;;28.80;20.58;;;;;;;;;;5108781;28;20020;-72
2021/12/10 13:38:57;;;;;;;21.95;13.90;;;;;;;;;;5106670;28;20024;-71
2021/12/10 13:41:27;;;;;;;26.27;17.30;;;;;;;;;;5110401;28;20425;-70
2021/12/10 13:44:02;;;;;;;39.40;21.40;;;;;;;;;;5107071;28;20015;-71
2021/12/10 13:46:33;;;;;;;56.70;29.55;;;;;;;;;;5102802;28;20020;-71
2021/12/10 13:49:02;;;;;;;32.00;13.93;;;;;;;;;;5106774;28;20471;-72
2021/12/10 13:51:32;;;;;;;27.95;13.45;;;;;;;;;;5110611;28;20060;-72
2021/12/10 13:54:05;;;;;;;20.05;10.18;;;;;;;;;;5110276;28;20099;-74
2021/12/10 13:56:31;;;;;;;15.80;8.25;;;;;;;;;;5110825;28;20418;-71
2021/12/10 13:58:59;;;;;;;13.32;6.95;;;;;;;;;;5110484;28;20063;-72
2021/12/10 14:01:27;;;;;;;13.23;6.68;;;;;;;;;;5110206;28;20426;-72
2021/12/10 14:03:53;;;;;;;15.50;8.48;;;;;;;;;;5110532;28;20077;-71
2021/12/10 14:06:19;;;;;;;17.65;9.13;;;;;;;;;;5110544;28;20023;-72
2021/12/10 14:09:05;;;;;;;15.10;8.02;;;;;;;;;;5110122;28;20024;-72
2021/12/10 14:11:51;;;;;;;15.95;9.00;;;;;;;;;;5110358;28;20081;-70
2021/12/10 14:14:17;;;;;;;10.73;5.68;;;;;;;;;;5110149;28;20024;-72
2021/12/10 14:16:54;;;;;;;23.95;7.03;;;;;;;;;;5110080;28;20464;-72
2021/12/10 14:19:32;;;;;;;19.92;9.60;;;;;;;;;;5109077;28;20040;-72
2021/12/10 14:21:58;;;;;;;15.90;7.45;;;;;;;;;;5109795;28;20024;-71
2021/12/10 14:24:39;;;;;;;14.70;7.85;;;;;;;;;;5110032;28;20016;-71
2021/12/10 14:27:26;;;;;;;14.07;7.60;;;;;;;;;;5110103;28;20024;-73
2021/12/10 14:30:13;;;;;;;18.50;9.77;;;;;;;;;;5115384;28;20039;-71
2021/12/10 14:32:39;;;;;;;22.27;13.65;;;;;;;;;;5096637;28;20096;-72
2021/12/10 14:35:10;;;;;;;14.77;7.90;;;;;;;;;;5096272;28;20031;-70
2021/12/10 14:38:07;;;;;;;25.60;11.20;;;;;;;;;;5095827;28;20077;-72
2021/12/10 14:40:39;;;;;;;18.40;10.60;;;;;;;;;;5079855;28;20028;-72
2021/12/10 14:43:23;;;;;;;13.30;5.40;;;;;;;;;;5096029;28;20435;-71
2021/12/10 14:46:01;;;;;;;10.98;5.00;;;;;;;;;;5094789;28;20119;-71
2021/12/10 14:48:28;;;;;;;21.52;13.25;;;;;;;;;;5096120;28;20027;-71
2021/12/10 14:50:59;;;;;;;15.13;7.78;;;;;;;;;;5095581;28;20027;-71
2021/12/10 14:53:30;;;;;;;9.00;4.65;;;;;;;;;;5092492;28;20482;-71
2021/12/10 14:56:14;;;;;;;12.52;6.13;;;;;;;;;;5093672;28;20546;-71
2021/12/10 14:58:40;;;;;;;12.02;8.20;;;;;;;;;;5093191;28;20074;-73
2021/12/10 15:01:11;;;;;;;6.13;3.85;;;;;;;;;;5093459;28;20586;-71
2021/12/10 15:03:45;;;;;;;6.85;4.63;;;;;;;;;;5093344;28;20036;-71
2021/12/10 15:06:14;;;;;;;10.25;5.72;;;;;;;;;;5094235;28;20020;-71
2021/12/10 15:09:00;;;;;;;7.10;3.78;;;;;;;;;;5092287;28;20020;-71
2021/12/10 15:11:48;;;;;;;16.75;10.60;;;;;;;;;;5093131;28;20024;-73
2021/12/10 15:14:29;;;;;;;16.88;9.60;;;;;;;;;;5093693;28;20116;-71
2021/12/10 15:16:59;;;;;;;18.05;11.23;;;;;;;;;;5093491;28;20092;-70
2021/12/10 15:19:28;;;;;;;26.45;15.25;;;;;;;;;;5093759;28;20024;-70